sensor_id;sensor_type;location;lat;lon;timestamp;P1;durP1;ratioP1;P2;durP2;ratioP2
35917;SDS011;22011;59.912;30.300;2023-07-02T00:02:21;7.32;;;4.00;;
35917;SDS011;22011;59.912;30.300;2023-07-02T00:04:48;7.03;;;3.45;;
35917;SDS011;22011;59.912;30.300;2023-07-02T00:07:17;11.85;;;3.58;;
35917;SDS011;22011;59.912;30.300;2023-07-02T00:09:45;6.35;;;3.20;;
35917;SDS011;22011;59.912;30.300;2023-07-02T00:12:13;5.25;;;2.95;;
35917;SDS011;22011;59.912;30.300;2023-07-02T00:14:41;4.75;;;2.45;;
35917;SDS011;22011;59.912;30.300;2023-07-02T00:17:08;6.47;;;3.28;;
35917;SDS011;22011;59.912;30.300;2023-07-02T00:19:38;4.47;;;3.00;;
35917;SDS011;22011;59.912;30.300;2023-07-02T00:22:07;5.30;;;3.28;;
35917;SDS011;22011;59.912;30.300;2023-07-02T00:24:36;9.88;;;3.60;;
35917;SDS011;22011;59.912;30.300;2023-07-02T00:27:04;6.25;;;3.55;;
35917;SDS011;22011;59.912;30.300;2023-07-02T00:29:31;10.25;;;3.53;;
35917;SDS011;22011;59.912;30.300;2023-07-02T00:31:59;2.97;;;2.65;;
35917;SDS011;22011;59.912;30.300;2023-07-02T00:34:26;4.50;;;2.83;;
35917;SDS011;22011;59.912;30.300;2023-07-02T00:36:54;5.05;;;2.90;;
35917;SDS011;22011;59.912;30.300;2023-07-02T00:39:21;6.30;;;3.40;;
35917;SDS011;22011;59.912;30.300;2023-07-02T00:41:50;5.03;;;2.85;;
35917;SDS011;22011;59.912;30.300;2023-07-02T00:44:18;5.25;;;3.30;;
35917;SDS011;22011;59.912;30.300;2023-07-02T00:46:45;4.25;;;3.15;;
35917;SDS011;22011;59.912;30.300;2023-07-02T00:49:13;6.18;;;2.80;;
35917;SDS011;22011;59.912;30.300;2023-07-02T00:51:41;8.88;;;3.35;;
35917;SDS011;22011;59.912;30.300;2023-07-02T00:54:08;5.22;;;2.78;;
35917;SDS011;22011;59.912;30.300;2023-07-02T00:56:36;5.35;;;3.30;;
35917;SDS011;22011;59.912;30.300;2023-07-02T00:59:05;5.50;;;3.33;;
35917;SDS011;22011;59.912;30.300;2023-07-02T01:01:33;4.25;;;3.13;;
35917;SDS011;22011;59.912;30.300;2023-07-02T01:04:04;6.07;;;3.60;;
35917;SDS011;22011;59.912;30.300;2023-07-02T01:06:36;5.63;;;3.72;;
35917;SDS011;22011;59.912;30.300;2023-07-02T01:09:06;6.38;;;3.78;;
35917;SDS011;22011;59.912;30.300;2023-07-02T01:11:34;4.53;;;3.13;;
35917;SDS011;22011;59.912;30.300;2023-07-02T01:14:08;4.45;;;3.03;;
35917;SDS011;22011;59.912;30.300;2023-07-02T01:16:38;8.43;;;3.53;;
35917;SDS011;22011;59.912;30.300;2023-07-02T01:19:10;5.90;;;3.50;;
35917;SDS011;22011;59.912;30.300;2023-07-02T01:21:41;5.18;;;3.05;;
35917;SDS011;22011;59.912;30.300;2023-07-02T01:24:09;6.40;;;3.40;;
35917;SDS011;22011;59.912;30.300;2023-07-02T01:26:37;4.78;;;3.25;;
35917;SDS011;22011;59.912;30.300;2023-07-02T01:29:13;9.45;;;4.10;;
35917;SDS011;22011;59.912;30.300;2023-07-02T01:31:41;7.03;;;3.40;;
35917;SDS011;22011;59.912;30.300;2023-07-02T01:34:09;6.53;;;3.00;;
35917;SDS011;22011;59.912;30.300;2023-07-02T01:36:36;6.13;;;3.20;;
35917;SDS011;22011;59.912;30.300;2023-07-02T01:39:06;6.30;;;3.58;;
35917;SDS011;22011;59.912;30.300;2023-07-02T01:41:36;5.53;;;3.37;;
35917;SDS011;22011;59.912;30.300;2023-07-02T01:44:08;7.25;;;3.20;;
35917;SDS011;22011;59.912;30.300;2023-07-02T01:46:36;8.27;;;3.45;;
35917;SDS011;22011;59.912;30.300;2023-07-02T01:49:03;13.63;;;3.67;;
35917;SDS011;22011;59.912;30.300;2023-07-02T01:51:31;5.63;;;3.13;;
35917;SDS011;22011;59.912;30.300;2023-07-02T01:53:59;6.00;;;3.97;;
35917;SDS011;22011;59.912;30.300;2023-07-02T01:56:28;9.27;;;3.88;;
35917;SDS011;22011;59.912;30.300;2023-07-02T01:58:55;6.20;;;3.70;;
35917;SDS011;22011;59.912;30.300;2023-07-02T02:01:23;6.30;;;3.60;;
35917;SDS011;22011;59.912;30.300;2023-07-02T02:03:50;7.15;;;3.60;;
35917;SDS011;22011;59.912;30.300;2023-07-02T02:06:18;8.80;;;3.72;;
35917;SDS011;22011;59.912;30.300;2023-07-02T02:08:45;4.65;;;3.13;;
35917;SDS011;22011;59.912;30.300;2023-07-02T02:11:12;8.63;;;5.15;;
35917;SDS011;22011;59.912;30.300;2023-07-02T02:13:41;8.05;;;3.65;;
35917;SDS011;22011;59.912;30.300;2023-07-02T02:16:09;8.05;;;3.42;;
35917;SDS011;22011;59.912;30.300;2023-07-02T02:18:37;6.93;;;3.60;;
35917;SDS011;22011;59.912;30.300;2023-07-02T02:21:04;7.93;;;3.47;;
35917;SDS011;22011;59.912;30.300;2023-07-02T02:23:32;4.93;;;2.85;;
35917;SDS011;22011;59.912;30.300;2023-07-02T02:25:59;6.43;;;3.70;;
35917;SDS011;22011;59.912;30.300;2023-07-02T02:28:27;6.32;;;3.60;;
35917;SDS011;22011;59.912;30.300;2023-07-02T02:30:56;6.43;;;3.80;;
35917;SDS011;22011;59.912;30.300;2023-07-02T02:33:24;7.17;;;3.00;;
35917;SDS011;22011;59.912;30.300;2023-07-02T02:35:51;5.03;;;3.40;;
35917;SDS011;22011;59.912;30.300;2023-07-02T02:38:19;5.15;;;3.45;;
35917;SDS011;22011;59.912;30.300;2023-07-02T02:40:47;9.07;;;4.00;;
35917;SDS011;22011;59.912;30.300;2023-07-02T02:43:18;6.15;;;3.85;;
35917;SDS011;22011;59.912;30.300;2023-07-02T02:45:47;8.35;;;3.80;;
35917;SDS011;22011;59.912;30.300;2023-07-02T02:48:16;6.95;;;3.50;;
35917;SDS011;22011;59.912;30.300;2023-07-02T02:50:44;10.82;;;3.90;;
35917;SDS011;22011;59.912;30.300;2023-07-02T02:53:12;4.60;;;3.55;;
35917;SDS011;22011;59.912;30.300;2023-07-02T02:55:40;4.97;;;3.55;;
35917;SDS011;22011;59.912;30.300;2023-07-02T02:58:07;4.53;;;3.15;;
35917;SDS011;22011;59.912;30.300;2023-07-02T03:00:35;5.45;;;3.65;;
35917;SDS011;22011;59.912;30.300;2023-07-02T03:03:04;5.47;;;3.83;;
35917;SDS011;22011;59.912;30.300;2023-07-02T03:05:33;8.63;;;3.38;;
35917;SDS011;22011;59.912;30.300;2023-07-02T03:08:00;7.00;;;4.00;;
35917;SDS011;22011;59.912;30.300;2023-07-02T03:10:28;4.88;;;3.22;;
35917;SDS011;22011;59.912;30.300;2023-07-02T03:12:56;5.85;;;3.13;;
35917;SDS011;22011;59.912;30.300;2023-07-02T03:15:23;6.05;;;3.47;;
35917;SDS011;22011;59.912;30.300;2023-07-02T03:17:51;4.63;;;3.33;;
35917;SDS011;22011;59.912;30.300;2023-07-02T03:20:18;5.72;;;3.65;;
35917;SDS011;22011;59.912;30.300;2023-07-02T03:22:47;10.23;;;3.50;;
35917;SDS011;22011;59.912;30.300;2023-07-02T03:25:15;6.28;;;3.92;;
35917;SDS011;22011;59.912;30.300;2023-07-02T03:27:43;6.82;;;3.67;;
35917;SDS011;22011;59.912;30.300;2023-07-02T03:30:10;5.93;;;3.55;;
35917;SDS011;22011;59.912;30.300;2023-07-02T03:32:39;7.68;;;3.55;;
35917;SDS011;22011;59.912;30.300;2023-07-02T03:35:07;5.63;;;3.75;;
35917;SDS011;22011;59.912;30.300;2023-07-02T03:37:35;5.53;;;3.15;;
35917;SDS011;22011;59.912;30.300;2023-07-02T03:40:04;5.63;;;3.33;;
35917;SDS011;22011;59.912;30.300;2023-07-02T03:42:33;7.28;;;3.55;;
35917;SDS011;22011;59.912;30.300;2023-07-02T03:45:00;9.50;;;3.63;;
35917;SDS011;22011;59.912;30.300;2023-07-02T03:47:29;7.32;;;3.92;;
35917;SDS011;22011;59.912;30.300;2023-07-02T03:49:56;8.82;;;3.53;;
35917;SDS011;22011;59.912;30.300;2023-07-02T03:52:24;5.20;;;3.60;;
35917;SDS011;22011;59.912;30.300;2023-07-02T03:54:51;6.97;;;3.67;;
35917;SDS011;22011;59.912;30.300;2023-07-02T03:57:20;6.65;;;3.33;;
35917;SDS011;22011;59.912;30.300;2023-07-02T03:59:48;5.05;;;3.47;;
35917;SDS011;22011;59.912;30.300;2023-07-02T04:02:15;6.10;;;3.58;;
35917;SDS011;22011;59.912;30.300;2023-07-02T04:04:43;6.95;;;3.78;;
35917;SDS011;22011;59.912;30.300;2023-07-02T04:07:10;6.32;;;3.83;;
35917;SDS011;22011;59.912;30.300;2023-07-02T04:09:38;6.47;;;3.65;;
35917;SDS011;22011;59.912;30.300;2023-07-02T04:12:06;7.95;;;3.92;;
35917;SDS011;22011;59.912;30.300;2023-07-02T04:14:36;8.40;;;3.75;;
35917;SDS011;22011;59.912;30.300;2023-07-02T04:17:03;7.15;;;3.30;;
35917;SDS011;22011;59.912;30.300;2023-07-02T04:19:31;5.68;;;3.47;;
35917;SDS011;22011;59.912;30.300;2023-07-02T04:21:59;5.60;;;3.67;;
35917;SDS011;22011;59.912;30.300;2023-07-02T04:24:26;4.80;;;2.92;;
35917;SDS011;22011;59.912;30.300;2023-07-02T04:26:54;5.28;;;3.28;;
35917;SDS011;22011;59.912;30.300;2023-07-02T04:29:21;4.45;;;3.08;;
35917;SDS011;22011;59.912;30.300;2023-07-02T04:31:50;7.03;;;3.13;;
35917;SDS011;22011;59.912;30.300;2023-07-02T04:34:17;3.30;;;2.85;;
35917;SDS011;22011;59.912;30.300;2023-07-02T04:36:47;6.90;;;3.70;;
35917;SDS011;22011;59.912;30.300;2023-07-02T04:39:15;6.70;;;4.00;;
35917;SDS011;22011;59.912;30.300;2023-07-02T04:41:42;7.82;;;3.90;;
35917;SDS011;22011;59.912;30.300;2023-07-02T04:44:10;5.50;;;3.10;;
35917;SDS011;22011;59.912;30.300;2023-07-02T04:46:37;6.10;;;3.58;;
35917;SDS011;22011;59.912;30.300;2023-07-02T04:49:06;6.45;;;3.53;;
35917;SDS011;22011;59.912;30.300;2023-07-02T04:51:34;7.00;;;3.28;;
35917;SDS011;22011;59.912;30.300;2023-07-02T04:54:01;6.00;;;3.42;;
35917;SDS011;22011;59.912;30.300;2023-07-02T04:56:29;5.40;;;3.15;;
35917;SDS011;22011;59.912;30.300;2023-07-02T04:58:56;6.03;;;3.60;;
35917;SDS011;22011;59.912;30.300;2023-07-02T05:01:24;5.55;;;3.47;;
35917;SDS011;22011;59.912;30.300;2023-07-02T05:03:51;7.07;;;3.58;;
35917;SDS011;22011;59.912;30.300;2023-07-02T05:06:20;6.63;;;3.28;;
35917;SDS011;22011;59.912;30.300;2023-07-02T05:08:47;6.10;;;3.28;;
35917;SDS011;22011;59.912;30.300;2023-07-02T05:11:15;6.80;;;3.72;;
35917;SDS011;22011;59.912;30.300;2023-07-02T05:13:42;5.88;;;3.42;;
35917;SDS011;22011;59.912;30.300;2023-07-02T05:16:10;5.15;;;3.13;;
35917;SDS011;22011;59.912;30.300;2023-07-02T05:18:37;5.88;;;3.35;;
35917;SDS011;22011;59.912;30.300;2023-07-02T05:21:05;5.00;;;3.20;;
35917;SDS011;22011;59.912;30.300;2023-07-02T05:23:34;6.05;;;3.50;;
35917;SDS011;22011;59.912;30.300;2023-07-02T05:26:01;8.32;;;3.10;;
35917;SDS011;22011;59.912;30.300;2023-07-02T05:28:29;5.40;;;3.58;;
35917;SDS011;22011;59.912;30.300;2023-07-02T05:30:56;7.15;;;3.83;;
35917;SDS011;22011;59.912;30.300;2023-07-02T05:33:24;9.10;;;3.42;;
35917;SDS011;22011;59.912;30.300;2023-07-02T05:35:51;5.75;;;4.07;;
35917;SDS011;22011;59.912;30.300;2023-07-02T05:38:19;6.35;;;3.67;;
35917;SDS011;22011;59.912;30.300;2023-07-02T05:40:47;7.53;;;4.30;;
35917;SDS011;22011;59.912;30.300;2023-07-02T05:43:15;6.78;;;3.88;;
35917;SDS011;22011;59.912;30.300;2023-07-02T05:45:42;6.60;;;3.83;;
35917;SDS011;22011;59.912;30.300;2023-07-02T05:48:10;4.88;;;3.38;;
35917;SDS011;22011;59.912;30.300;2023-07-02T05:50:37;4.93;;;3.65;;
35917;SDS011;22011;59.912;30.300;2023-07-02T05:53:05;10.25;;;3.78;;
35917;SDS011;22011;59.912;30.300;2023-07-02T05:55:32;4.90;;;3.40;;
35917;SDS011;22011;59.912;30.300;2023-07-02T05:58:01;6.82;;;3.33;;
35917;SDS011;22011;59.912;30.300;2023-07-02T06:00:29;7.20;;;3.28;;
35917;SDS011;22011;59.912;30.300;2023-07-02T06:02:56;7.45;;;3.75;;
35917;SDS011;22011;59.912;30.300;2023-07-02T06:05:24;7.05;;;3.70;;
35917;SDS011;22011;59.912;30.300;2023-07-02T06:07:51;4.85;;;3.30;;
35917;SDS011;22011;59.912;30.300;2023-07-02T06:10:19;6.65;;;3.58;;
35917;SDS011;22011;59.912;30.300;2023-07-02T06:12:47;8.43;;;3.25;;
35917;SDS011;22011;59.912;30.300;2023-07-02T06:15:15;6.22;;;3.67;;
35917;SDS011;22011;59.912;30.300;2023-07-02T06:17:43;6.88;;;3.70;;
35917;SDS011;22011;59.912;30.300;2023-07-02T06:20:11;7.03;;;3.42;;
35917;SDS011;22011;59.912;30.300;2023-07-02T06:22:39;5.60;;;3.25;;
35917;SDS011;22011;59.912;30.300;2023-07-02T06:25:08;5.53;;;3.47;;
35917;SDS011;22011;59.912;30.300;2023-07-02T06:27:35;7.63;;;3.47;;
35917;SDS011;22011;59.912;30.300;2023-07-02T06:30:03;6.25;;;3.75;;
35917;SDS011;22011;59.912;30.300;2023-07-02T06:32:33;8.50;;;4.03;;
35917;SDS011;22011;59.912;30.300;2023-07-02T06:35:00;6.63;;;3.75;;
35917;SDS011;22011;59.912;30.300;2023-07-02T06:37:28;5.70;;;3.20;;
35917;SDS011;22011;59.912;30.300;2023-07-02T06:39:55;9.13;;;3.40;;
35917;SDS011;22011;59.912;30.300;2023-07-02T06:42:24;5.80;;;3.45;;
35917;SDS011;22011;59.912;30.300;2023-07-02T06:44:51;5.25;;;3.40;;
35917;SDS011;22011;59.912;30.300;2023-07-02T06:47:19;4.35;;;3.60;;
35917;SDS011;22011;59.912;30.300;2023-07-02T06:49:48;5.47;;;3.50;;
35917;SDS011;22011;59.912;30.300;2023-07-02T06:52:15;4.97;;;3.40;;
35917;SDS011;22011;59.912;30.300;2023-07-02T06:54:43;6.10;;;3.03;;
35917;SDS011;22011;59.912;30.300;2023-07-02T06:57:10;4.97;;;3.13;;
35917;SDS011;22011;59.912;30.300;2023-07-02T06:59:38;6.28;;;3.80;;
35917;SDS011;22011;59.912;30.300;2023-07-02T07:02:05;3.92;;;3.50;;
35917;SDS011;22011;59.912;30.300;2023-07-02T07:04:33;7.45;;;4.00;;
35917;SDS011;22011;59.912;30.300;2023-07-02T07:07:03;5.10;;;3.67;;
35917;SDS011;22011;59.912;30.300;2023-07-02T07:09:30;5.63;;;4.00;;
35917;SDS011;22011;59.912;30.300;2023-07-02T07:11:58;7.75;;;4.22;;
35917;SDS011;22011;59.912;30.300;2023-07-02T07:14:25;8.70;;;3.45;;
35917;SDS011;22011;59.912;30.300;2023-07-02T07:16:53;4.75;;;3.45;;
35917;SDS011;22011;59.912;30.300;2023-07-02T07:19:20;6.80;;;3.67;;
35917;SDS011;22011;59.912;30.300;2023-07-02T07:21:48;6.18;;;3.83;;
35917;SDS011;22011;59.912;30.300;2023-07-02T07:24:17;5.95;;;3.92;;
35917;SDS011;22011;59.912;30.300;2023-07-02T07:26:44;6.38;;;3.50;;
35917;SDS011;22011;59.912;30.300;2023-07-02T07:29:12;5.43;;;3.15;;
35917;SDS011;22011;59.912;30.300;2023-07-02T07:31:39;5.40;;;3.63;;
35917;SDS011;22011;59.912;30.300;2023-07-02T07:34:07;5.55;;;3.80;;
35917;SDS011;22011;59.912;30.300;2023-07-02T07:36:34;4.30;;;3.60;;
35917;SDS011;22011;59.912;30.300;2023-07-02T07:39:03;5.50;;;3.60;;
35917;SDS011;22011;59.912;30.300;2023-07-02T07:41:32;5.93;;;3.70;;
35917;SDS011;22011;59.912;30.300;2023-07-02T07:43:59;4.10;;;2.93;;
35917;SDS011;22011;59.912;30.300;2023-07-02T07:46:27;5.30;;;3.50;;
35917;SDS011;22011;59.912;30.300;2023-07-02T07:48:55;4.38;;;3.40;;
35917;SDS011;22011;59.912;30.300;2023-07-02T07:51:22;4.57;;;3.60;;
35917;SDS011;22011;59.912;30.300;2023-07-02T07:53:50;4.07;;;3.05;;
35917;SDS011;22011;59.912;30.300;2023-07-02T07:56:17;6.30;;;3.33;;
35917;SDS011;22011;59.912;30.300;2023-07-02T07:58:46;5.88;;;3.15;;
35917;SDS011;22011;59.912;30.300;2023-07-02T08:01:14;7.20;;;3.60;;
35917;SDS011;22011;59.912;30.300;2023-07-02T08:03:41;4.97;;;2.95;;
35917;SDS011;22011;59.912;30.300;2023-07-02T08:06:08;3.72;;;3.42;;
35917;SDS011;22011;59.912;30.300;2023-07-02T08:08:36;7.43;;;3.20;;
35917;SDS011;22011;59.912;30.300;2023-07-02T08:11:03;5.03;;;3.50;;
35917;SDS011;22011;59.912;30.300;2023-07-02T08:13:31;10.05;;;3.95;;
35917;SDS011;22011;59.912;30.300;2023-07-02T08:16:00;5.68;;;3.25;;
35917;SDS011;22011;59.912;30.300;2023-07-02T08:18:27;4.67;;;3.43;;
35917;SDS011;22011;59.912;30.300;2023-07-02T08:20:55;4.97;;;3.70;;
35917;SDS011;22011;59.912;30.300;2023-07-02T08:23:22;5.68;;;3.65;;
35917;SDS011;22011;59.912;30.300;2023-07-02T08:25:50;8.07;;;4.10;;
35917;SDS011;22011;59.912;30.300;2023-07-02T08:28:17;4.22;;;3.83;;
35917;SDS011;22011;59.912;30.300;2023-07-02T08:30:44;5.45;;;3.10;;
35917;SDS011;22011;59.912;30.300;2023-07-02T08:33:13;3.72;;;2.95;;
35917;SDS011;22011;59.912;30.300;2023-07-02T08:35:41;12.40;;;3.43;;
35917;SDS011;22011;59.912;30.300;2023-07-02T08:38:08;6.63;;;3.20;;
35917;SDS011;22011;59.912;30.300;2023-07-02T08:40:36;5.43;;;3.13;;
35917;SDS011;22011;59.912;30.300;2023-07-02T08:43:03;5.15;;;3.25;;
35917;SDS011;22011;59.912;30.300;2023-07-02T08:45:31;3.75;;;3.42;;
35917;SDS011;22011;59.912;30.300;2023-07-02T08:47:58;4.47;;;3.53;;
35917;SDS011;22011;59.912;30.300;2023-07-02T08:50:27;4.88;;;3.33;;
35917;SDS011;22011;59.912;30.300;2023-07-02T08:52:55;5.45;;;3.47;;
35917;SDS011;22011;59.912;30.300;2023-07-02T08:55:22;5.40;;;3.75;;
35917;SDS011;22011;59.912;30.300;2023-07-02T08:57:51;5.88;;;4.20;;
35917;SDS011;22011;59.912;30.300;2023-07-02T09:00:20;4.32;;;3.70;;
35917;SDS011;22011;59.912;30.300;2023-07-02T09:02:48;6.57;;;3.65;;
35917;SDS011;22011;59.912;30.300;2023-07-02T09:05:16;6.63;;;4.28;;
35917;SDS011;22011;59.912;30.300;2023-07-02T09:07:45;5.45;;;3.97;;
35917;SDS011;22011;59.912;30.300;2023-07-02T09:13:02;6.47;;;4.18;;
35917;SDS011;22011;59.912;30.300;2023-07-02T09:15:34;10.80;;;6.93;;
35917;SDS011;22011;59.912;30.300;2023-07-02T09:18:13;5.35;;;4.60;;
35917;SDS011;22011;59.912;30.300;2023-07-02T09:20:42;8.88;;;4.43;;
35917;SDS011;22011;59.912;30.300;2023-07-02T09:23:11;5.40;;;4.07;;
35917;SDS011;22011;59.912;30.300;2023-07-02T09:25:39;5.10;;;3.90;;
35917;SDS011;22011;59.912;30.300;2023-07-02T09:28:13;5.93;;;3.53;;
35917;SDS011;22011;59.912;30.300;2023-07-02T09:30:48;7.45;;;3.92;;
35917;SDS011;22011;59.912;30.300;2023-07-02T09:33:17;8.23;;;3.85;;
35917;SDS011;22011;59.912;30.300;2023-07-02T09:35:44;5.22;;;3.47;;
35917;SDS011;22011;59.912;30.300;2023-07-02T09:38:13;5.32;;;3.63;;
35917;SDS011;22011;59.912;30.300;2023-07-02T09:40:44;4.72;;;3.55;;
35917;SDS011;22011;59.912;30.300;2023-07-02T09:43:13;4.63;;;3.40;;
35917;SDS011;22011;59.912;30.300;2023-07-02T09:45:45;5.50;;;3.53;;
35917;SDS011;22011;59.912;30.300;2023-07-02T09:48:14;7.10;;;3.40;;
35917;SDS011;22011;59.912;30.300;2023-07-02T09:50:42;7.25;;;3.33;;
35917;SDS011;22011;59.912;30.300;2023-07-02T09:53:11;5.30;;;3.85;;
35917;SDS011;22011;59.912;30.300;2023-07-02T09:55:41;6.20;;;3.70;;
35917;SDS011;22011;59.912;30.300;2023-07-02T09:58:10;5.45;;;4.05;;
35917;SDS011;22011;59.912;30.300;2023-07-02T10:00:38;5.75;;;3.33;;
35917;SDS011;22011;59.912;30.300;2023-07-02T10:03:07;4.68;;;3.78;;
35917;SDS011;22011;59.912;30.300;2023-07-02T10:05:35;4.57;;;3.30;;
35917;SDS011;22011;59.912;30.300;2023-07-02T10:08:11;5.70;;;3.85;;
35917;SDS011;22011;59.912;30.300;2023-07-02T10:10:41;4.07;;;3.45;;
35917;SDS011;22011;59.912;30.300;2023-07-02T10:13:09;13.55;;;3.60;;
35917;SDS011;22011;59.912;30.300;2023-07-02T10:15:36;6.28;;;3.53;;
35917;SDS011;22011;59.912;30.300;2023-07-02T10:18:05;7.10;;;3.10;;
35917;SDS011;22011;59.912;30.300;2023-07-02T10:20:34;5.70;;;4.00;;
35917;SDS011;22011;59.912;30.300;2023-07-02T10:23:03;5.35;;;3.70;;
35917;SDS011;22011;59.912;30.300;2023-07-02T10:25:32;3.92;;;3.03;;
35917;SDS011;22011;59.912;30.300;2023-07-02T10:28:14;5.75;;;3.63;;
35917;SDS011;22011;59.912;30.300;2023-07-02T10:30:45;5.70;;;4.80;;
35917;SDS011;22011;59.912;30.300;2023-07-02T10:33:14;3.53;;;3.05;;
35917;SDS011;22011;59.912;30.300;2023-07-02T10:38:18;6.68;;;3.03;;
35917;SDS011;22011;59.912;30.300;2023-07-02T10:40:46;5.43;;;2.40;;
35917;SDS011;22011;59.912;30.300;2023-07-02T10:43:25;5.63;;;3.08;;
35917;SDS011;22011;59.912;30.300;2023-07-02T10:45:53;4.28;;;2.85;;
35917;SDS011;22011;59.912;30.300;2023-07-02T10:48:22;6.07;;;2.83;;
35917;SDS011;22011;59.912;30.300;2023-07-02T10:50:49;3.38;;;2.45;;
35917;SDS011;22011;59.912;30.300;2023-07-02T10:53:17;4.20;;;2.63;;
35917;SDS011;22011;59.912;30.300;2023-07-02T10:55:45;3.17;;;2.25;;
35917;SDS011;22011;59.912;30.300;2023-07-02T10:58:12;3.53;;;2.03;;
35917;SDS011;22011;59.912;30.300;2023-07-02T11:00:45;5.60;;;2.50;;
35917;SDS011;22011;59.912;30.300;2023-07-02T11:03:17;7.05;;;2.78;;
35917;SDS011;22011;59.912;30.300;2023-07-02T11:05:46;3.72;;;2.42;;
35917;SDS011;22011;59.912;30.300;2023-07-02T11:08:14;4.53;;;2.92;;
35917;SDS011;22011;59.912;30.300;2023-07-02T11:10:41;3.92;;;2.20;;
35917;SDS011;22011;59.912;30.300;2023-07-02T11:13:12;3.88;;;2.15;;
35917;SDS011;22011;59.912;30.300;2023-07-02T11:15:40;4.65;;;2.00;;
35917;SDS011;22011;59.912;30.300;2023-07-02T11:18:12;3.15;;;1.98;;
35917;SDS011;22011;59.912;30.300;2023-07-02T11:20:40;6.78;;;2.28;;
35917;SDS011;22011;59.912;30.300;2023-07-02T11:23:18;7.35;;;2.70;;
35917;SDS011;22011;59.912;30.300;2023-07-02T11:25:54;10.32;;;2.42;;
35917;SDS011;22011;59.912;30.300;2023-07-02T11:28:23;5.60;;;2.22;;
35917;SDS011;22011;59.912;30.300;2023-07-02T11:30:50;2.40;;;1.70;;
35917;SDS011;22011;59.912;30.300;2023-07-02T11:33:20;6.45;;;1.73;;
35917;SDS011;22011;59.912;30.300;2023-07-02T11:35:58;2.78;;;1.95;;
35917;SDS011;22011;59.912;30.300;2023-07-02T11:38:26;1.83;;;1.60;;
35917;SDS011;22011;59.912;30.300;2023-07-02T11:40:53;2.70;;;1.73;;
35917;SDS011;22011;59.912;30.300;2023-07-02T11:43:21;3.08;;;2.10;;
35917;SDS011;22011;59.912;30.300;2023-07-02T11:45:48;6.50;;;2.13;;
35917;SDS011;22011;59.912;30.300;2023-07-02T11:48:16;2.92;;;1.40;;
35917;SDS011;22011;59.912;30.300;2023-07-02T11:50:45;6.68;;;1.80;;
35917;SDS011;22011;59.912;30.300;2023-07-02T11:53:12;2.40;;;1.55;;
35917;SDS011;22011;59.912;30.300;2023-07-02T11:55:40;5.13;;;1.88;;
35917;SDS011;22011;59.912;30.300;2023-07-02T11:58:07;4.70;;;1.70;;
35917;SDS011;22011;59.912;30.300;2023-07-02T12:00:35;11.45;;;2.58;;
35917;SDS011;22011;59.912;30.300;2023-07-02T12:03:02;3.58;;;1.83;;
35917;SDS011;22011;59.912;30.300;2023-07-02T12:05:30;11.35;;;2.17;;
35917;SDS011;22011;59.912;30.300;2023-07-02T12:07:59;4.70;;;2.60;;
35917;SDS011;22011;59.912;30.300;2023-07-02T12:10:26;7.78;;;2.20;;
35917;SDS011;22011;59.912;30.300;2023-07-02T12:12:54;3.72;;;2.20;;
35917;SDS011;22011;59.912;30.300;2023-07-02T12:15:21;5.10;;;2.22;;
35917;SDS011;22011;59.912;30.300;2023-07-02T12:17:49;7.05;;;2.20;;
35917;SDS011;22011;59.912;30.300;2023-07-02T12:20:16;3.30;;;2.72;;
35917;SDS011;22011;59.912;30.300;2023-07-02T12:22:44;4.75;;;2.40;;
35917;SDS011;22011;59.912;30.300;2023-07-02T12:25:12;4.30;;;2.53;;
35917;SDS011;22011;59.912;30.300;2023-07-02T12:27:40;5.70;;;2.20;;
35917;SDS011;22011;59.912;30.300;2023-07-02T12:30:08;4.38;;;2.70;;
35917;SDS011;22011;59.912;30.300;2023-07-02T12:32:37;4.38;;;2.60;;
35917;SDS011;22011;59.912;30.300;2023-07-02T12:35:05;4.07;;;2.35;;
35917;SDS011;22011;59.912;30.300;2023-07-02T12:37:33;2.40;;;2.20;;
35917;SDS011;22011;59.912;30.300;2023-07-02T12:40:01;6.22;;;2.60;;
35917;SDS011;22011;59.912;30.300;2023-07-02T12:42:30;4.18;;;2.15;;
35917;SDS011;22011;59.912;30.300;2023-07-02T12:44:57;4.43;;;2.23;;
35917;SDS011;22011;59.912;30.300;2023-07-02T12:47:25;2.85;;;2.22;;
35917;SDS011;22011;59.912;30.300;2023-07-02T12:49:52;4.53;;;2.53;;
35917;SDS011;22011;59.912;30.300;2023-07-02T12:52:20;3.38;;;2.40;;
35917;SDS011;22011;59.912;30.300;2023-07-02T12:54:47;3.70;;;2.42;;
35917;SDS011;22011;59.912;30.300;2023-07-02T12:57:15;3.53;;;2.08;;
35917;SDS011;22011;59.912;30.300;2023-07-02T12:59:45;4.88;;;2.40;;
35917;SDS011;22011;59.912;30.300;2023-07-02T13:02:13;4.07;;;2.38;;
35917;SDS011;22011;59.912;30.300;2023-07-02T13:04:40;4.32;;;3.03;;
35917;SDS011;22011;59.912;30.300;2023-07-02T13:07:08;4.82;;;3.30;;
35917;SDS011;22011;59.912;30.300;2023-07-02T13:09:35;3.90;;;2.80;;
35917;SDS011;22011;59.912;30.300;2023-07-02T13:12:03;9.60;;;3.00;;
35917;SDS011;22011;59.912;30.300;2023-07-02T13:14:31;3.97;;;2.83;;
35917;SDS011;22011;59.912;30.300;2023-07-02T13:17:00;5.55;;;2.33;;
35917;SDS011;22011;59.912;30.300;2023-07-02T13:19:29;4.15;;;2.42;;
35917;SDS011;22011;59.912;30.300;2023-07-02T13:21:56;3.65;;;2.40;;
35917;SDS011;22011;59.912;30.300;2023-07-02T13:24:24;2.72;;;2.53;;
35917;SDS011;22011;59.912;30.300;2023-07-02T13:26:51;3.80;;;2.35;;
35917;SDS011;22011;59.912;30.300;2023-07-02T13:29:19;6.28;;;2.45;;
35917;SDS011;22011;59.912;30.300;2023-07-02T13:31:46;8.52;;;2.75;;
35917;SDS011;22011;59.912;30.300;2023-07-02T13:34:15;3.30;;;2.40;;
35917;SDS011;22011;59.912;30.300;2023-07-02T13:36:43;3.10;;;2.65;;
35917;SDS011;22011;59.912;30.300;2023-07-02T13:39:10;4.65;;;2.53;;
35917;SDS011;22011;59.912;30.300;2023-07-02T13:41:38;3.47;;;2.45;;
35917;SDS011;22011;59.912;30.300;2023-07-02T13:44:05;7.40;;;2.65;;
35917;SDS011;22011;59.912;30.300;2023-07-02T13:46:33;11.80;;;3.17;;
35917;SDS011;22011;59.912;30.300;2023-07-02T13:49:01;6.93;;;2.78;;
35917;SDS011;22011;59.912;30.300;2023-07-02T13:51:29;6.03;;;2.63;;
35917;SDS011;22011;59.912;30.300;2023-07-02T13:53:57;5.32;;;2.72;;
35917;SDS011;22011;59.912;30.300;2023-07-02T13:56:24;5.65;;;2.80;;
35917;SDS011;22011;59.912;30.300;2023-07-02T13:59:03;4.95;;;3.13;;
35917;SDS011;22011;59.912;30.300;2023-07-02T14:01:32;6.47;;;3.40;;
35917;SDS011;22011;59.912;30.300;2023-07-02T14:04:00;6.57;;;3.08;;
35917;SDS011;22011;59.912;30.300;2023-07-02T14:06:27;6.70;;;2.65;;
35917;SDS011;22011;59.912;30.300;2023-07-02T14:08:55;6.57;;;2.40;;
35917;SDS011;22011;59.912;30.300;2023-07-02T14:11:23;3.15;;;2.00;;
35917;SDS011;22011;59.912;30.300;2023-07-02T14:13:53;4.15;;;2.30;;
35917;SDS011;22011;59.912;30.300;2023-07-02T14:16:22;3.28;;;2.15;;
35917;SDS011;22011;59.912;30.300;2023-07-02T14:18:50;3.85;;;2.33;;
35917;SDS011;22011;59.912;30.300;2023-07-02T14:21:18;2.47;;;2.00;;
35917;SDS011;22011;59.912;30.300;2023-07-02T14:23:46;2.40;;;2.10;;
35917;SDS011;22011;59.912;30.300;2023-07-02T14:26:13;5.95;;;2.63;;
35917;SDS011;22011;59.912;30.300;2023-07-02T14:28:41;4.28;;;2.90;;
35917;SDS011;22011;59.912;30.300;2023-07-02T14:31:08;4.22;;;2.47;;
35917;SDS011;22011;59.912;30.300;2023-07-02T14:33:37;4.18;;;2.60;;
35917;SDS011;22011;59.912;30.300;2023-07-02T14:36:06;3.97;;;2.80;;
35917;SDS011;22011;59.912;30.300;2023-07-02T14:38:34;6.63;;;3.10;;
35917;SDS011;22011;59.912;30.300;2023-07-02T14:41:02;4.18;;;2.50;;
35917;SDS011;22011;59.912;30.300;2023-07-02T14:43:30;8.77;;;3.75;;
35917;SDS011;22011;59.912;30.300;2023-07-02T14:45:59;6.70;;;3.08;;